createdAt,value
2022-12-13T00:00:58.234Z,46.8
2022-12-13T00:06:37.532Z,46.8
2022-12-13T00:12:15.745Z,46.7
2022-12-13T00:17:54.218Z,46.6
2022-12-13T00:23:31.872Z,46.6
2022-12-13T00:29:16.597Z,46.6
2022-12-13T00:35:37.312Z,46.5
2022-12-13T00:40:59.356Z,46.4
2022-12-13T00:46:38.433Z,46.4
2022-12-13T00:52:16.491Z,46.4
2022-12-13T00:57:53.924Z,46.3
2022-12-13T01:03:23.239Z,46.3
2022-12-13T01:09:38.858Z,46.3
2022-12-13T01:15:17.202Z,46.2
2022-12-13T01:20:55.186Z,46.1
2022-12-13T01:26:19.976Z,46.1
2022-12-13T01:32:02.099Z,46.1
2022-12-13T01:37:54.141Z,46
2022-12-13T01:44:20.949Z,45.9
2022-12-13T01:50:09.445Z,45.9
2022-12-13T01:56:00.226Z,45.9
2022-12-13T02:01:30.628Z,45.8
2022-12-13T02:06:49.771Z,45.8
2022-12-13T02:12:33.047Z,45.8
2022-12-13T02:18:18.964Z,45.7
2022-12-13T02:24:08.611Z,45.7
2022-12-13T02:30:20.894Z,45.2
2022-12-13T02:35:59.535Z,45.6
2022-12-13T02:41:34.707Z,46.5
2022-12-13T02:47:55.398Z,47.6
2022-12-13T02:53:34.942Z,48.8
2022-12-13T02:59:02.923Z,49.8
2022-12-13T03:04:42.599Z,51
2022-12-13T03:15:47.131Z,53.1
2022-12-13T03:21:12.412Z,54.1
2022-12-13T03:26:54.659Z,55.1
2022-12-13T03:32:33.877Z,56.1
2022-12-13T03:38:55.877Z,56.3
2022-12-13T03:44:34.329Z,56.3
2022-12-13T03:50:43.698Z,56.3
2022-12-13T03:56:24.437Z,56.3
2022-12-13T04:01:59.905Z,56.3
2022-12-13T04:08:38.216Z,56.3
2022-12-13T04:14:27.231Z,56.3
2022-12-13T04:19:56.737Z,56.2
2022-12-13T04:25:39.501Z,56.2
2022-12-13T04:31:16.501Z,56.1
2022-12-13T04:36:48.675Z,56.1
2022-12-13T04:41:51.531Z,56.1
2022-12-13T04:47:37.985Z,56
2022-12-13T04:52:39.457Z,56
2022-12-13T04:58:40.564Z,55.9
2022-12-13T05:04:19.732Z,55.9
2022-12-13T05:09:44.550Z,55.9
2022-12-13T05:16:11.512Z,55.9
2022-12-13T05:21:36.020Z,55.8
2022-12-13T05:27:41.816Z,55.8
2022-12-13T05:33:20.595Z,55.8
2022-12-13T05:39:27.581Z,55.7
2022-12-13T05:45:07.011Z,55.6
2022-12-13T05:50:29.542Z,55.6
2022-12-13T05:56:12.057Z,55.6
2022-12-13T06:02:21.351Z,55.6
2022-12-13T06:08:03.352Z,55.5
2022-12-13T06:16:01.946Z,55.4
2022-12-13T06:22:00.302Z,55.4
2022-12-13T06:27:17.852Z,55.4
2022-12-13T06:33:24.316Z,55.4
2022-12-13T06:39:37.146Z,55.3
2022-12-13T06:45:14.986Z,55.3
2022-12-13T06:51:12.128Z,55.3
2022-12-13T06:57:02.414Z,55.2
2022-12-13T07:03:15.375Z,55.2
2022-12-13T07:09:28.715Z,55.1
2022-12-13T07:15:16.586Z,55.1
2022-12-13T07:21:06.835Z,55
2022-12-13T07:27:07.198Z,55
2022-12-13T07:33:07.935Z,54.9
2022-12-13T07:39:07.808Z,54.9
2022-12-13T07:44:52.494Z,54.9
2022-12-13T07:50:57.578Z,54.8
2022-12-13T07:56:58.532Z,54.8
2022-12-13T08:02:43.355Z,54.8
2022-12-13T08:08:51.242Z,54.7
2022-12-13T08:14:18.397Z,54.7
2022-12-13T08:20:27.205Z,54.6
2022-12-13T08:27:06.843Z,54.6
2022-12-13T08:32:59.168Z,54.6
2022-12-13T08:38:44.063Z,54.5
2022-12-13T08:44:32.593Z,54.5
2022-12-13T08:50:23.818Z,54.4
2022-12-13T08:56:21.777Z,54.4
2022-12-13T09:02:04.702Z,54.4
2022-12-13T09:08:13.347Z,54.3
2022-12-13T09:15:22.702Z,54.3
2022-12-13T09:22:32.877Z,54.2
2022-12-13T09:29:11.290Z,54.2
2022-12-13T09:35:08.809Z,54.1
2022-12-13T09:41:19.388Z,54.1
2022-12-13T09:49:13.197Z,54.1
2022-12-13T09:56:27.106Z,54
2022-12-13T10:02:29.540Z,54
2022-12-13T10:08:20.232Z,54.1
2022-12-13T10:14:06.168Z,54.3
2022-12-13T10:20:18.704Z,54.6
2022-12-13T10:27:30.573Z,55
2022-12-13T10:33:27.542Z,55.4
2022-12-13T10:39:05.606Z,55.9
2022-12-13T10:44:48.137Z,56.2
2022-12-13T10:50:48.661Z,56.4
2022-12-13T10:57:13.308Z,56.8
2022-12-13T11:03:08.431Z,57.1
2022-12-13T11:08:50.332Z,57.4
2022-12-13T11:15:06.060Z,57.8
2022-12-13T11:20:51.311Z,58.1
2022-12-13T11:26:41.086Z,58.5
2022-12-13T11:32:42.408Z,58.8
2022-12-13T11:38:21.423Z,59.1
2022-12-13T11:43:47.090Z,59.3
2022-12-13T11:49:37.095Z,59.5
2022-12-13T11:55:13.739Z,59.7
2022-12-13T12:01:57.120Z,59.9
2022-12-13T12:08:53.958Z,60.1
2022-12-13T12:14:24.887Z,60.2
2022-12-13T12:20:41.068Z,60.3
2022-12-13T12:26:55.695Z,60.3
2022-12-13T12:32:57.930Z,60.4
2022-12-13T12:38:42.694Z,60.4
2022-12-13T12:45:17.413Z,60.4
2022-12-13T12:53:18.495Z,60.3
2022-12-13T12:59:07.624Z,60.3
2022-12-13T13:05:12.460Z,60.3
2022-12-13T13:11:59.988Z,60.3
2022-12-13T13:18:04.958Z,60.2
2022-12-13T13:24:46.277Z,60.2
2022-12-13T13:31:07.555Z,60.1
2022-12-13T13:37:02.273Z,60.1
2022-12-13T13:42:43.754Z,60
2022-12-13T13:48:31.379Z,60
2022-12-13T13:54:42.833Z,59.9
2022-12-13T14:00:44.370Z,59.9
2022-12-13T14:06:21.544Z,59.8
2022-12-13T14:12:18.422Z,59.8
2022-12-13T14:18:21.137Z,59.8
2022-12-13T14:23:46.546Z,59.8
2022-12-13T14:29:18.227Z,59.7
2022-12-13T14:36:15.495Z,59.6
2022-12-13T14:42:00.575Z,59.6
2022-12-13T14:47:53.851Z,59.6
2022-12-13T14:53:49.384Z,59.5
2022-12-13T14:59:36.960Z,59.4
2022-12-13T15:05:28.325Z,59.4
2022-12-13T15:11:26.472Z,59.4
2022-12-13T15:17:35.720Z,59.3
2022-12-13T15:23:08.498Z,59.3
2022-12-13T15:29:11.243Z,59.3
2022-12-13T15:35:17.910Z,59.2
2022-12-13T15:41:11.119Z,59.1
2022-12-13T15:46:59.078Z,59.1
2022-12-13T15:52:53.336Z,59.1
2022-12-13T15:58:43.423Z,59
2022-12-13T16:04:15.860Z,59
2022-12-13T16:10:10.259Z,58.9
2022-12-13T16:16:09.074Z,58.9
2022-12-13T16:22:08.293Z,58.8
2022-12-13T16:28:14.508Z,58.8
2022-12-13T16:34:34.635Z,58.7
2022-12-13T16:40:43.790Z,58.7
2022-12-13T16:48:17.874Z,58.6
2022-12-13T17:05:09.583Z,58.5
2022-12-13T17:10:46.666Z,58.4
2022-12-13T17:16:49.456Z,58.4
2022-12-13T17:22:37.313Z,58.4
2022-12-13T17:28:18.907Z,58.3
2022-12-13T17:33:53.567Z,58.3
2022-12-13T17:39:34.299Z,58.3
2022-12-13T17:45:14.567Z,58.2
2022-12-13T17:50:54.502Z,58.1
2022-12-13T17:56:25.818Z,58.1
2022-12-13T18:02:05.153Z,58.1
2022-12-13T18:07:15.734Z,58
2022-12-13T18:13:36.844Z,57.9
2022-12-13T18:20:17.567Z,57.7
2022-12-13T18:25:52.796Z,57.6
2022-12-13T18:31:34.688Z,57.5
2022-12-13T18:37:12.670Z,57.4
2022-12-13T18:43:02.230Z,57.4
2022-12-13T18:48:28.352Z,57.4
2022-12-13T18:53:58.933Z,57.3
2022-12-13T18:59:28.040Z,57.3
2022-12-13T19:05:28.652Z,57.2
2022-12-13T19:10:44.620Z,57.1
2022-12-13T19:16:18.678Z,57.1
2022-12-13T19:22:01.977Z,57.1
2022-12-13T19:27:34.748Z,57
2022-12-13T19:33:13.427Z,56.9
2022-12-13T19:38:42.311Z,56.9
2022-12-13T19:44:25.938Z,56.9
2022-12-13T19:50:04.950Z,56.8
2022-12-13T19:55:43.812Z,56.8
2022-12-13T20:01:06.769Z,56.7
2022-12-13T20:06:35.159Z,56.6
2022-12-13T20:11:58.523Z,56.5
2022-12-13T20:17:45.009Z,56.4
2022-12-13T20:23:38.994Z,56.4
2022-12-13T20:29:06.191Z,56.4
2022-12-13T20:34:30.096Z,56.3
2022-12-13T20:40:46.526Z,56.3
2022-12-13T20:46:10.140Z,56.2
2022-12-13T20:51:38.492Z,56.2
2022-12-13T20:57:11.986Z,56.1
2022-12-13T21:02:40.234Z,56.1
2022-12-13T21:08:21.308Z,55.9
2022-12-13T21:13:43.911Z,55.9
2022-12-13T21:19:39.296Z,55.9
2022-12-13T21:25:18.055Z,55.8
2022-12-13T21:31:00.582Z,55.8
2022-12-13T21:36:39.009Z,55.7
2022-12-13T21:42:20.089Z,55.7
2022-12-13T21:48:48.991Z,55.6
2022-12-13T21:54:28.936Z,55.6
2022-12-13T22:00:27.666Z,55.5
2022-12-13T22:05:50.609Z,55.4
2022-12-13T22:11:17.868Z,55.4
2022-12-13T22:16:57.658Z,55.4
2022-12-13T22:22:41.447Z,55.3
2022-12-13T22:28:07.753Z,55.3
2022-12-13T22:33:46.170Z,55.2
2022-12-13T22:39:11.105Z,55.1
2022-12-13T22:44:49.420Z,55.1
2022-12-13T22:50:27.293Z,55.1
2022-12-13T22:55:54.269Z,55
2022-12-13T23:01:33.382Z,54.9
2022-12-13T23:07:12.205Z,54.9
2022-12-13T23:12:10.487Z,54.9
2022-12-13T23:17:48.628Z,54.8
2022-12-13T23:24:12.621Z,54.8
2022-12-13T23:29:34.957Z,54.7
2022-12-13T23:35:13.226Z,54.7
2022-12-13T23:40:26.193Z,54.6
2022-12-13T23:46:08.347Z,54.6
2022-12-13T23:51:53.986Z,54.5
2022-12-13T23:57:31.411Z,54.5
